Time;durP1;ratioP1;P1;durP2;ratioP2;P2;SDS_P1;SDS_P2;PMS_P1;PMS_P2;Temp;Humidity;BMP_temperature;BMP_pressure;BME280_temperature;BME280_humidity;BME280_pressure;Samples;Min_cycle;Max_cycle;Signal;HPM_P1;HPM_P2
2023/11/22 00:02:18;;;;;;;11.90;4.47;;;;;;;3.28;100.00;102458.63;6274931;28;20354;-72
2023/11/22 00:05:19;;;;;;;8.05;3.75;;;;;;;3.23;100.00;102460.34;6275193;28;20131;-72
2023/11/22 00:08:21;;;;;;;6.57;3.88;;;;;;;3.21;100.00;102467.25;6274913;28;20613;-72
2023/11/22 00:11:22;;;;;;;4.60;2.72;;;;;;;3.23;100.00;102476.78;6274955;28;20055;-72
2023/11/22 00:14:25;;;;;;;11.75;3.15;;;;;;;3.16;100.00;102480.22;6275104;28;20433;-72
2023/11/22 00:17:27;;;;;;;5.70;3.03;;;;;;;3.14;100.00;102486.28;6274995;28;20051;-72
2023/11/22 00:20:28;;;;;;;5.55;2.78;;;;;;;3.16;100.00;102484.53;6274813;28;20052;-72
2023/11/22 00:23:30;;;;;;;6.45;3.10;;;;;;;3.10;100.00;102476.72;6279114;28;20064;-72
2023/11/22 00:26:32;;;;;;;4.55;2.30;;;;;;;3.10;100.00;102474.13;6280265;28;20048;-72
2023/11/22 00:29:35;;;;;;;4.63;2.50;;;;;;;3.07;100.00;102479.28;6280084;28;20052;-73
2023/11/22 00:32:36;;;;;;;4.00;1.92;;;;;;;3.01;100.00;102475.81;6280934;28;20052;-72
2023/11/22 00:35:37;;;;;;;6.47;2.72;;;;;;;2.99;100.00;102484.44;6271362;28;20048;-73
2023/11/22 00:38:39;;;;;;;4.90;2.60;;;;;;;2.90;100.00;102490.44;6279870;28;20056;-72
2023/11/22 00:41:41;;;;;;;6.82;2.95;;;;;;;2.86;100.00;102480.03;6279528;28;20041;-72
2023/11/22 00:44:43;;;;;;;4.35;2.70;;;;;;;2.83;100.00;102480.03;6279344;28;20379;-72
2023/11/22 00:47:45;;;;;;;4.82;2.67;;;;;;;2.77;100.00;102476.53;6281593;28;20049;-72
2023/11/22 00:50:46;;;;;;;4.70;2.25;;;;;;;2.83;100.00;102488.69;6270874;28;20049;-72
2023/11/22 00:53:47;;;;;;;5.68;2.65;;;;;;;2.80;100.00;102488.66;6279343;28;20071;-72
2023/11/22 00:56:49;;;;;;;5.35;2.58;;;;;;;2.78;100.00;102491.25;6279263;28;20060;-72
2023/11/22 00:59:53;;;;;;;7.78;2.67;;;;;;;2.76;100.00;102498.13;6279109;28;20056;-72
2023/11/22 01:02:55;;;;;;;5.88;2.30;;;;;;;2.76;100.00;102507.66;6278884;28;20483;-72
2023/11/22 01:05:56;;;;;;;4.47;2.30;;;;;;;2.73;100.00;102518.91;6279335;28;20049;-72
2023/11/22 01:08:57;;;;;;;4.85;2.40;;;;;;;2.76;100.00;102529.28;6278729;28;20052;-72
2023/11/22 01:11:59;;;;;;;7.13;2.38;;;;;;;2.70;100.00;102530.97;6278826;28;20041;-73
2023/11/22 01:15:02;;;;;;;4.78;2.50;;;;;;;2.64;100.00;102524.00;6278894;28;20072;-72
2023/11/22 01:18:03;;;;;;;4.75;2.55;;;;;;;2.60;100.00;102522.25;6278725;28;20053;-72
2023/11/22 01:21:05;;;;;;;6.43;3.00;;;;;;;2.60;100.00;102529.16;6274454;28;20047;-74
2023/11/22 01:24:07;;;;;;;6.97;3.00;;;;;;;2.63;100.00;102517.06;6278457;28;20140;-72
2023/11/22 01:27:08;;;;;;;6.45;2.55;;;;;;;2.61;100.00;102526.56;6278802;28;20053;-72
2023/11/22 01:30:12;;;;;;;4.10;2.40;;;;;;;2.62;100.00;102514.47;6278238;28;20461;-72
2023/11/22 01:33:13;;;;;;;4.25;2.38;;;;;;;2.60;100.00;102503.22;6277852;28;20053;-72
2023/11/22 01:36:16;;;;;;;7.55;2.88;;;;;;;2.57;100.00;102505.78;6278040;28;20583;-71
2023/11/22 01:39:17;;;;;;;5.18;2.85;;;;;;;2.49;100.00;102491.00;6278081;28;20729;-72
2023/11/22 01:42:20;;;;;;;4.43;1.92;;;;;;;2.42;100.00;102493.56;6278112;28;20053;-72
2023/11/22 01:45:22;;;;;;;4.32;2.38;;;;;;;2.43;100.00;102498.75;6278305;28;20053;-72
2023/11/22 01:48:24;;;;;;;5.07;2.63;;;;;;;2.41;100.00;102508.25;6278133;28;20056;-73
2023/11/22 01:51:26;;;;;;;6.45;3.35;;;;;;;2.33;100.00;102517.69;6277692;28;20051;-73
2023/11/22 01:54:29;;;;;;;4.25;2.30;;;;;;;2.33;100.00;102517.69;6277731;28;20107;-74
2023/11/22 01:57:33;;;;;;;11.10;3.33;;;;;;;2.32;100.00;102528.03;6277773;28;20064;-72
2023/11/22 02:00:45;;;;;;;6.28;2.85;;;;;;;2.27;100.00;102544.44;6277658;28;20056;-73
2023/11/22 02:03:47;;;;;;;10.93;2.58;;;;;;;2.24;100.00;102544.41;6277632;28;20433;-72
2023/11/22 02:06:49;;;;;;;8.57;3.28;;;;;;;2.24;100.00;102551.31;6277519;28;20048;-72
2023/11/22 02:09:52;;;;;;;6.95;2.30;;;;;;;2.25;100.00;102561.69;6277477;28;20056;-72
2023/11/22 02:12:54;;;;;;;4.45;2.72;;;;;;;2.18;100.00;102552.13;6277427;28;20049;-72
2023/11/22 02:15:58;;;;;;;4.78;2.58;;;;;;;2.17;100.00;102554.69;6277321;28;20078;-72
2023/11/22 02:19:00;;;;;;;4.90;2.38;;;;;;;2.16;100.00;102552.97;6277329;28;20080;-72
2023/11/22 02:22:02;;;;;;;5.95;2.75;;;;;;;2.18;100.00;102556.44;6277105;28;20045;-73
2023/11/22 02:25:06;;;;;;;7.07;2.75;;;;;;;2.17;100.00;102546.91;6277388;28;20059;-72
2023/11/22 02:28:08;;;;;;;4.75;2.90;;;;;;;2.20;100.00;102549.53;6277308;28;20068;-73
2023/11/22 02:31:09;;;;;;;4.30;2.15;;;;;;;2.15;100.00;102540.84;6277668;28;20049;-72
2023/11/22 02:34:11;;;;;;;4.95;2.30;;;;;;;2.07;100.00;102547.69;6274658;28;20045;-73
2023/11/22 02:37:13;;;;;;;5.57;2.95;;;;;;;2.04;100.00;102556.28;6273310;28;20060;-73
2023/11/22 02:40:18;;;;;;;5.25;2.28;;;;;;;2.05;100.00;102562.38;6267855;28;20049;-72
2023/11/22 02:43:20;;;;;;;5.85;2.60;;;;;;;2.08;100.00;102572.75;6261472;28;20464;-73
2023/11/22 02:46:23;;;;;;;6.35;2.88;;;;;;;2.02;100.00;102576.16;6266593;28;20056;-72
2023/11/22 02:49:24;;;;;;;5.97;3.03;;;;;;;2.01;100.00;102575.28;6262320;28;20055;-72
2023/11/22 02:52:26;;;;;;;8.88;3.13;;;;;;;1.98;100.00;102583.00;6264783;28;20483;-72
2023/11/22 02:55:29;;;;;;;5.05;2.45;;;;;;;1.99;100.00;102596.84;6266369;28;20053;-72
2023/11/22 02:58:31;;;;;;;4.90;3.03;;;;;;;1.94;100.00;102591.59;6255523;28;20049;-72
2023/11/22 03:01:32;;;;;;;4.22;2.60;;;;;;;1.91;100.00;102591.59;6251653;28;20056;-73
2023/11/22 03:04:33;;;;;;;5.55;2.75;;;;;;;1.88;100.00;102588.94;6251730;28;20053;-73
2023/11/22 03:07:35;;;;;;;6.68;2.67;;;;;;;1.85;100.00;102594.09;6251393;28;20049;-72
2023/11/22 03:10:38;;;;;;;5.60;2.33;;;;;;;1.86;100.00;102589.75;6251700;28;20049;-73
2023/11/22 03:13:39;;;;;;;5.85;2.67;;;;;;;1.85;100.00;102594.09;6251422;28;20140;-73
2023/11/22 03:16:42;;;;;;;4.70;2.42;;;;;;;1.75;100.00;102585.31;6251836;28;20053;-73
2023/11/22 03:19:45;;;;;;;6.80;3.20;;;;;;;1.74;100.00;102591.38;6252061;28;20053;-73
2023/11/22 03:22:50;;;;;;;6.22;3.03;;;;;;;1.74;100.00;102595.69;6264542;28;20340;-73
2023/11/22 03:25:53;;;;;;;8.63;2.97;;;;;;;1.70;100.00;102599.94;6273112;28;20045;-73
2023/11/22 03:28:54;;;;;;;4.30;2.55;;;;;;;1.67;100.00;102604.22;6267583;28;20045;-72
2023/11/22 03:31:55;;;;;;;6.95;3.13;;;;;;;1.64;100.00;102610.25;6275663;28;20045;-72
2023/11/22 03:34:57;;;;;;;5.93;2.65;;;;;;;1.64;100.00;102620.63;6275475;28;20072;-72
2023/11/22 03:37:59;;;;;;;6.50;3.53;;;;;;;1.64;100.00;102618.03;6275641;28;20056;-72
2023/11/22 03:41:01;;;;;;;5.70;2.70;;;;;;;1.66;100.00;102634.44;6275297;28;20353;-72
2023/11/22 03:44:04;;;;;;;6.43;2.90;;;;;;;1.69;100.00;102631.91;6275573;28;20052;-72
2023/11/22 03:47:06;;;;;;;8.23;3.72;;;;;;;1.65;100.00;102627.53;6275150;28;20048;-72
2023/11/22 03:50:09;;;;;;;7.10;3.28;;;;;;;1.64;100.00;102641.34;6275613;28;20225;-72
2023/11/22 03:53:11;;;;;;;7.82;2.78;;;;;;;1.63;100.00;102649.94;6275206;28;20045;-73
2023/11/22 03:56:13;;;;;;;7.00;3.25;;;;;;;1.63;100.00;102657.72;6275172;28;20434;-73
2023/11/22 03:59:15;;;;;;;8.27;3.60;;;;;;;1.63;100.00;102656.84;6275280;28;20048;-73
2023/11/22 04:02:16;;;;;;;6.80;2.97;;;;;;;1.62;100.00;102649.94;6275233;28;20052;-73
2023/11/22 04:05:19;;;;;;;8.95;3.17;;;;;;;1.55;100.00;102654.16;6275297;28;20049;-73
2023/11/22 04:08:21;;;;;;;6.65;2.83;;;;;;;1.59;100.00;102647.28;6275239;28;20049;-73
2023/11/22 04:11:23;;;;;;;7.28;3.17;;;;;;;1.58;100.00;102649.00;6275099;28;20049;-73
2023/11/22 04:14:27;;;;;;;6.53;2.63;;;;;;;1.56;100.00;102660.22;6274929;28;20056;-73
2023/11/22 04:17:28;;;;;;;6.55;2.90;;;;;;;1.52;100.00;102664.47;6275205;28;20053;-73
2023/11/22 04:20:29;;;;;;;6.10;2.83;;;;;;;1.49;100.00;102667.00;6274637;28;20052;-73
2023/11/22 04:23:32;;;;;;;6.20;3.00;;;;;;;1.44;100.00;102674.72;6275010;28;20045;-72
2023/11/22 04:26:34;;;;;;;6.97;3.05;;;;;;;1.38;100.00;102663.41;6275093;28;20053;-72
2023/11/22 04:29:36;;;;;;;9.50;4.25;;;;;;;1.43;100.00;102675.56;6275044;28;20045;-72
2023/11/22 04:32:38;;;;;;;8.05;2.85;;;;;;;1.42;100.00;102672.97;6273098;28;20179;-72
2023/11/22 04:35:41;;;;;;;6.13;2.75;;;;;;;1.42;100.00;102671.25;6274246;28;20086;-73
2023/11/22 04:38:43;;;;;;;13.27;3.72;;;;;;;1.39;100.00;102667.72;6268699;28;20449;-74
2023/11/22 04:41:46;;;;;;;6.97;3.20;;;;;;;1.30;100.00;102673.63;6274935;28;20530;-73
2023/11/22 04:44:47;;;;;;;8.32;3.60;;;;;;;1.30;100.00;102663.28;6274754;28;20049;-73
2023/11/22 04:47:48;;;;;;;6.07;3.42;;;;;;;1.22;100.00;102665.72;6274688;28;20064;-72
2023/11/22 04:50:50;;;;;;;9.85;3.03;;;;;;;1.27;100.00;102656.34;6274705;28;20044;-72
2023/11/22 04:53:52;;;;;;;6.70;3.42;;;;;;;1.23;100.00;102651.97;6279444;28;20429;-72
2023/11/22 04:56:55;;;;;;;6.43;2.53;;;;;;;1.22;100.00;102655.38;6266538;28;20141;-73
2023/11/22 04:59:56;;;;;;;5.82;3.03;;;;;;;1.22;100.00;102650.19;6274578;28;20142;-72
2023/11/22 05:02:58;;;;;;;7.63;3.25;;;;;;;1.23;100.00;102658.84;6274134;28;20341;-72
2023/11/22 05:05:59;;;;;;;6.82;3.13;;;;;;;1.22;100.00;102659.69;6274611;28;20060;-72
2023/11/22 05:09:01;;;;;;;5.70;2.85;;;;;;;1.21;100.00;102668.31;6275963;28;20357;-75
2023/11/22 05:12:04;;;;;;;6.35;2.70;;;;;;;1.20;100.00;102669.16;6278915;28;20056;-73
2023/11/22 05:15:06;;;;;;;6.90;3.00;;;;;;;1.23;100.00;102683.03;6279260;28;20053;-72
2023/11/22 05:18:08;;;;;;;6.95;3.17;;;;;;;1.24;100.00;102686.50;6284652;28;20056;-72
2023/11/22 05:21:09;;;;;;;4.07;2.70;;;;;;;1.26;100.00;102702.91;6270202;28;20048;-73
2023/11/22 05:24:10;;;;;;;5.50;2.45;;;;;;;1.23;100.00;102702.88;6278749;28;20056;-73
2023/11/22 05:27:13;;;;;;;6.63;3.05;;;;;;;1.34;100.00;102713.41;6278663;28;20045;-72
2023/11/22 05:30:16;;;;;;;6.22;3.13;;;;;;;1.40;100.00;102718.69;6278651;28;20053;-72
2023/11/22 05:33:18;;;;;;;5.57;2.80;;;;;;;1.44;100.00;102705.81;6278373;28;20134;-72
2023/11/22 05:36:20;;;;;;;8.93;3.60;;;;;;;1.46;100.00;102706.72;6278408;28;20053;-74
2023/11/22 05:39:22;;;;;;;5.03;2.72;;;;;;;1.48;100.00;102709.31;6278345;28;20387;-72
2023/11/22 05:42:25;;;;;;;6.28;2.67;;;;;;;1.56;100.00;102705.13;6278300;28;20041;-72
2023/11/22 05:45:27;;;;;;;6.68;3.60;;;;;;;1.53;100.00;102698.16;6278438;28;20092;-73
2023/11/22 05:48:28;;;;;;;7.43;3.10;;;;;;;1.49;100.00;102706.75;6278117;28;20076;-72
2023/11/22 05:51:30;;;;;;;6.90;3.35;;;;;;;1.40;100.00;102709.19;6278104;28;20530;-74
2023/11/22 05:54:31;;;;;;;7.50;3.63;;;;;;;1.40;100.00;102705.72;6278520;28;20068;-72
2023/11/22 05:57:34;;;;;;;6.57;3.30;;;;;;;1.39;100.00;102712.63;6274297;28;20055;-72
2023/11/22 06:00:37;;;;;;;6.82;3.08;;;;;;;1.33;100.00;102706.50;6277659;28;20056;-72
2023/11/22 06:03:39;;;;;;;6.00;2.88;;;;;;;1.29;100.00;102728.88;6258718;28;20059;-72
2023/11/22 06:06:41;;;;;;;6.03;3.40;;;;;;;1.24;100.00;102728.78;6252743;28;20080;-72
2023/11/22 06:09:42;;;;;;;7.78;3.72;;;;;;;1.21;100.00;102712.31;6263635;28;20049;-72
2023/11/22 06:12:45;;;;;;;9.18;3.60;;;;;;;1.21;100.00;102718.38;6265700;28;20041;-73
2023/11/22 06:15:46;;;;;;;5.32;3.03;;;;;;;1.18;100.00;102720.03;6266094;28;20044;-72
2023/11/22 06:18:48;;;;;;;8.25;3.63;;;;;;;1.09;100.00;102718.19;6263233;28;20350;-72
2023/11/22 06:21:49;;;;;;;7.75;3.60;;;;;;;1.15;100.00;102717.41;6265378;28;20048;-75
2023/11/22 06:24:50;;;;;;;7.38;3.65;;;;;;;1.20;100.00;102701.09;6264126;28;20049;-75
2023/11/22 06:27:53;;;;;;;9.23;3.60;;;;;;;1.20;100.00;102697.63;6264749;28;20056;-76
2023/11/22 06:30:55;;;;;;;8.63;3.85;;;;;;;1.14;100.00;102698.41;6266838;28;20045;-75
2023/11/22 06:33:56;;;;;;;9.88;4.18;;;;;;;1.08;100.00;102708.66;6271008;28;20049;-76
2023/11/22 06:36:57;;;;;;;7.50;3.50;;;;;;;1.13;100.00;102711.31;6263511;28;20453;-75
2023/11/22 06:39:59;;;;;;;8.07;3.45;;;;;;;1.04;100.00;102712.03;6265050;28;20049;-76
2023/11/22 06:43:04;;;;;;;5.40;3.15;;;;;;;1.07;100.00;102709.50;6264484;28;20041;-76
2023/11/22 06:46:06;;;;;;;7.75;3.38;;;;;;;0.98;100.00;102711.94;6267558;28;20041;-75
2023/11/22 06:49:07;;;;;;;12.02;4.28;;;;;;;0.91;100.00;102708.38;6252119;28;20057;-72
2023/11/22 06:52:09;;;;;;;8.10;3.78;;;;;;;0.86;100.00;102709.97;6251777;28;20056;-72
2023/11/22 06:55:11;;;;;;;11.88;4.22;;;;;;;0.91;100.00;102710.06;6252196;28;20056;-72
2023/11/22 06:58:14;;;;;;;7.20;3.35;;;;;;;0.96;100.00;102713.63;6251882;28;20056;-73
2023/11/22 07:01:15;;;;;;;6.53;3.67;;;;;;;1.00;100.00;102721.47;6251479;28;20045;-72
2023/11/22 07:04:17;;;;;;;8.38;4.07;;;;;;;1.06;100.00;102710.34;6251640;28;20465;-73
2023/11/22 07:07:19;;;;;;;8.57;4.13;;;;;;;1.09;100.00;102717.28;6251416;28;20053;-73
2023/11/22 07:10:22;;;;;;;7.00;3.50;;;;;;;1.06;100.00;102725.88;6251583;28;20129;-73
2023/11/22 07:13:26;;;;;;;5.72;3.47;;;;;;;1.11;100.00;102725.97;6273848;28;20514;-72
2023/11/22 07:16:28;;;;;;;13.35;4.90;;;;;;;1.20;100.00;102733.91;6271421;28;20048;-72
2023/11/22 07:19:29;;;;;;;7.90;4.28;;;;;;;1.18;100.00;102725.22;6275865;28;20049;-72
2023/11/22 07:22:31;;;;;;;8.40;4.38;;;;;;;1.16;100.00;102717.44;6275709;28;20346;-72
2023/11/22 07:25:33;;;;;;;15.40;4.97;;;;;;;1.13;100.00;102706.13;6275873;28;20071;-73
2023/11/22 07:28:36;;;;;;;11.25;5.18;;;;;;;1.10;100.00;102708.69;6254990;28;20087;-72
2023/11/22 07:31:37;;;;;;;11.68;5.45;;;;;;;1.14;100.00;102705.31;6250362;28;20104;-72
2023/11/22 07:34:40;;;;;;;9.85;4.05;;;;;;;1.13;100.00;102699.25;6251092;28;20049;-72
2023/11/22 07:37:43;;;;;;;13.93;3.53;;;;;;;1.24;100.00;102708.06;6250819;28;20052;-72
2023/11/22 07:40:44;;;;;;;9.52;3.58;;;;;;;1.31;100.00;102710.75;6251119;28;20053;-72
2023/11/22 07:43:47;;;;;;;7.63;3.67;;;;;;;1.30;100.00;102715.06;6250831;28;20232;-72
2023/11/22 07:46:49;;;;;;;11.00;3.67;;;;;;;1.31;100.00;102728.88;6250818;28;20056;-72
2023/11/22 07:49:51;;;;;;;5.93;3.40;;;;;;;1.38;100.00;102733.34;6250789;28;20049;-72
2023/11/22 07:52:52;;;;;;;12.90;3.15;;;;;;;1.42;100.00;102733.41;6250493;28;20046;-73
2023/11/22 07:55:54;;;;;;;6.57;3.75;;;;;;;1.47;100.00;102736.94;6258357;28;20071;-74
2023/11/22 07:58:57;;;;;;;7.38;3.95;;;;;;;1.48;100.00;102737.81;6265320;28;20052;-74
2023/11/22 08:02:01;;;;;;;11.55;4.53;;;;;;;1.53;100.00;102744.81;6266237;28;20045;-74
2023/11/22 08:05:03;;;;;;;7.25;3.70;;;;;;;1.54;100.00;102753.44;6267240;28;20045;-74
2023/11/22 08:08:07;;;;;;;9.88;4.03;;;;;;;1.56;100.00;102759.53;6250451;28;20119;-73
2023/11/22 08:11:14;;;;;;;6.90;3.70;;;;;;;1.64;100.00;102764.84;6265088;28;20522;-72
2023/11/22 08:14:17;;;;;;;6.88;3.50;;;;;;;1.67;100.00;102768.34;6275176;28;20049;-71
2023/11/22 08:17:19;;;;;;;6.75;3.75;;;;;;;1.64;100.00;102762.28;6274947;28;20477;-73
2023/11/22 08:20:21;;;;;;;12.50;4.85;;;;;;;1.73;100.00;102768.47;6274515;28;20057;-71
2023/11/22 08:23:22;;;;;;;9.52;4.57;;;;;;;1.81;100.00;102760.78;6274650;28;20349;-72
2023/11/22 08:26:25;;;;;;;6.93;3.85;;;;;;;1.82;100.00;102769.44;6274878;28;20044;-71
2023/11/22 08:29:28;;;;;;;8.32;4.28;;;;;;;1.84;100.00;102771.22;6274833;28;20056;-73
2023/11/22 08:32:30;;;;;;;12.02;3.85;;;;;;;1.86;100.00;102781.59;6270641;28;21817;-72
2023/11/22 08:35:32;;;;;;;9.50;5.00;;;;;;;1.93;100.00;102780.84;6273900;28;20045;-73
2023/11/22 08:38:34;;;;;;;9.07;4.60;;;;;;;1.86;100.00;102769.50;6264775;28;20434;-72
2023/11/22 08:41:35;;;;;;;10.05;3.78;;;;;;;1.82;100.00;102772.91;6267666;28;20141;-71
2023/11/22 08:44:39;;;;;;;6.95;3.60;;;;;;;1.85;100.00;102778.13;6268950;28;20049;-71
2023/11/22 08:47:40;;;;;;;7.55;3.45;;;;;;;1.86;100.00;102776.41;6276459;28;20048;-71
2023/11/22 08:50:43;;;;;;;15.20;5.55;;;;;;;1.93;100.00;102789.50;6279201;28;20446;-71
2023/11/22 08:53:45;;;;;;;13.63;5.57;;;;;;;1.99;100.00;102793.91;6273041;28;20040;-73
2023/11/22 08:56:47;;;;;;;11.85;5.60;;;;;;;1.97;100.00;102775.75;6265409;28;20049;-72
2023/11/22 08:59:49;;;;;;;12.77;5.03;;;;;;;1.99;100.00;102791.31;6265603;28;20052;-74
2023/11/22 09:02:51;;;;;;;7.20;3.45;;;;;;;1.94;100.00;102792.97;6271591;28;20036;-73
2023/11/22 09:05:53;;;;;;;8.02;3.90;;;;;;;1.95;100.00;102789.50;6268159;28;20081;-74
2023/11/22 09:08:55;;;;;;;7.93;3.90;;;;;;;2.03;100.00;102790.50;6254197;28;20428;-71
2023/11/22 09:11:56;;;;;;;7.80;4.03;;;;;;;2.08;100.00;102798.34;6269892;28;20042;-73
2023/11/22 09:14:59;;;;;;;9.02;4.30;;;;;;;2.13;100.00;102783.72;6270234;28;20053;-73
2023/11/22 09:18:01;;;;;;;7.47;4.43;;;;;;;2.18;100.00;102776.88;6275268;28;20457;-72
2023/11/22 09:21:02;;;;;;;7.65;3.45;;;;;;;2.23;100.00;102780.44;6273740;28;20445;-72
2023/11/22 09:24:05;;;;;;;8.90;4.55;;;;;;;2.28;100.00;102786.56;6266802;28;20508;-72
2023/11/22 09:27:10;;;;;;;7.05;3.92;;;;;;;2.21;100.00;102777.81;6254123;28;20059;-71
2023/11/22 09:30:18;;;;;;;9.65;4.75;;;;;;;2.18;100.00;102769.09;6253893;28;20056;-74
2023/11/22 09:33:19;;;;;;;18.67;4.93;;;;;;;2.19;100.00;102776.91;6253564;28;20049;-74
2023/11/22 09:36:21;;;;;;;10.18;5.32;;;;;;;2.20;100.00;102770.88;6253587;28;20045;-73
2023/11/22 09:39:24;;;;;;;16.50;4.55;;;;;;;2.31;100.00;102767.56;6253403;28;20045;-74
2023/11/22 09:42:27;;;;;;;8.00;4.78;;;;;;;2.36;100.00;102773.66;6253390;28;20053;-74
2023/11/22 09:45:30;;;;;;;8.23;4.60;;;;;;;2.35;100.00;102770.22;6253164;28;20053;-74
2023/11/22 09:48:32;;;;;;;7.72;4.70;;;;;;;2.40;100.00;102778.91;6253398;28;20060;-73
2023/11/22 09:51:37;;;;;;;9.05;4.22;;;;;;;2.47;100.00;102780.75;6253306;28;20059;-74
2023/11/22 09:54:40;;;;;;;8.00;3.92;;;;;;;2.54;100.00;102777.41;6252819;28;20056;-74
2023/11/22 09:57:42;;;;;;;6.15;3.33;;;;;;;2.54;100.00;102774.81;6253145;28;20052;-73
2023/11/22 10:00:45;;;;;;;8.27;3.30;;;;;;;2.66;100.00;102793.97;6253217;28;20060;-73
2023/11/22 10:03:47;;;;;;;8.27;3.78;;;;;;;2.74;100.00;102789.75;6257288;28;20052;-73
2023/11/22 10:06:49;;;;;;;7.15;4.75;;;;;;;2.72;100.00;102794.91;6277821;28;20049;-72
2023/11/22 10:09:51;;;;;;;14.50;4.88;;;;;;;2.78;100.00;102802.78;6277273;28;20048;-74
2023/11/22 10:12:55;;;;;;;6.20;3.60;;;;;;;2.82;100.00;102802.78;6277268;28;20437;-73
2023/11/22 10:16:10;;;;;;;7.68;4.13;;;;;;;2.85;100.00;102800.25;6277699;28;20049;-74
2023/11/22 10:19:13;;;;;;;7.72;4.20;;;;;;;2.83;100.00;102805.44;6277370;28;20044;-73
2023/11/22 10:22:17;;;;;;;5.22;2.97;;;;;;;2.92;100.00;102802.06;6277095;28;20045;-72
2023/11/22 10:25:19;;;;;;;6.35;3.40;;;;;;;2.99;100.00;102806.47;6276944;28;20353;-73
2023/11/22 10:28:22;;;;;;;9.82;4.43;;;;;;;3.00;100.00;102792.66;6277138;28;20345;-73
2023/11/22 10:31:26;;;;;;;9.00;3.85;;;;;;;2.95;100.00;102808.19;6276952;28;20135;-74
2023/11/22 10:34:27;;;;;;;7.63;4.03;;;;;;;3.01;100.00;102796.97;6277097;28;20051;-74
2023/11/22 10:37:29;;;;;;;8.63;4.10;;;;;;;3.04;100.00;102797.88;6276713;28;20107;-74
2023/11/22 10:40:31;;;;;;;6.68;3.67;;;;;;;3.02;100.00;102807.38;6276580;28;20060;-75
2023/11/22 10:43:34;;;;;;;7.10;3.58;;;;;;;3.10;100.00;102814.38;6265699;28;20041;-73
2023/11/22 10:46:39;;;;;;;16.17;4.10;;;;;;;3.15;100.00;102804.91;6274952;28;20060;-74
2023/11/22 10:49:42;;;;;;;6.53;3.95;;;;;;;3.13;100.00;102796.22;6268647;28;20062;-74
2023/11/22 10:52:46;;;;;;;7.97;3.38;;;;;;;3.17;100.00;102772.88;6276592;28;20048;-73
2023/11/22 10:55:49;;;;;;;7.95;3.55;;;;;;;3.17;100.00;102761.63;6268040;28;20468;-73
2023/11/22 10:58:52;;;;;;;5.07;2.70;;;;;;;3.15;100.00;102753.84;6276630;28;20056;-73
2023/11/22 11:01:58;;;;;;;5.45;2.55;;;;;;;3.23;100.00;102764.31;6276490;28;20438;-73
2023/11/22 11:05:07;;;;;;;4.97;2.70;;;;;;;3.18;100.00;102769.47;6276244;28;20055;-73
2023/11/22 11:08:10;;;;;;;;;;;;;;;3.23;100.00;102735.72;6275988;28;20441;-73
2023/11/22 11:11:14;;;;;;;10.55;2.75;;;;;;;3.29;100.00;102744.44;6276197;28;19921;-74
2023/11/22 11:14:17;;;;;;;8.73;3.30;;;;;;;3.30;100.00;102737.50;6276196;28;20049;-73
2023/11/22 11:17:20;;;;;;;8.00;3.45;;;;;;;3.43;100.00;102730.69;6275898;28;20057;-72
2023/11/22 11:20:24;;;;;;;8.60;2.97;;;;;;;3.39;100.00;102709.00;6287891;22;20464;-72
2023/11/22 11:23:26;;;;;;;5.45;3.00;;;;;;;3.45;100.00;102722.06;6263015;28;20049;-73
2023/11/22 11:26:28;;;;;;;9.38;3.45;;;;;;;3.43;100.00;102697.78;6268337;28;20489;-74
2023/11/22 11:29:31;;;;;;;5.78;2.90;;;;;;;3.44;100.00;102715.09;6265672;28;20045;-73
2023/11/22 11:32:34;;;;;;;7.50;2.85;;;;;;;3.47;100.00;102701.28;6262877;28;20060;-74
2023/11/22 11:35:39;;;;;;;5.63;2.65;;;;;;;3.49;100.00;102681.34;6266374;28;20044;-72
2023/11/22 11:38:41;;;;;;;5.88;2.53;;;;;;;3.51;100.00;102670.13;6274961;28;20438;-72
2023/11/22 11:41:43;;;;;;;10.98;2.88;;;;;;;3.59;100.00;102656.28;6259893;28;20057;-72
2023/11/22 11:45:06;;;;;;;4.28;2.15;;;;;;;3.81;100.00;102650.34;6250592;28;20442;-72
2023/11/22 11:48:09;;;;;;;3.67;2.20;;;;;;;3.76;100.00;102626.06;6250974;28;20092;-73
2023/11/22 11:51:11;;;;;;;8.40;2.88;;;;;;;3.62;100.00;102612.13;6250593;28;20050;-72
2023/11/22 11:54:13;;;;;;;5.80;2.58;;;;;;;3.63;100.00;102590.44;6250596;28;20060;-72
2023/11/22 11:57:15;;;;;;;6.07;2.10;;;;;;;3.68;100.00;102586.13;6260098;28;20052;-72
2023/11/22 12:00:16;;;;;;;4.63;2.55;;;;;;;3.68;100.00;102580.94;6281116;28;20064;-72
2023/11/22 12:03:21;;;;;;;4.32;2.05;;;;;;;3.67;100.00;102580.06;6285121;28;20052;-72
2023/11/22 12:06:22;;;;;;;5.25;2.83;;;;;;;3.81;100.00;102549.81;6268922;28;20057;-73
2023/11/22 12:09:25;;;;;;;13.52;2.78;;;;;;;3.82;100.00;102548.09;6271946;28;20053;-72
2023/11/22 12:12:26;;;;;;;8.15;2.15;;;;;;;3.92;100.00;102541.19;6272646;28;20059;-72
2023/11/22 12:15:29;;;;;;;4.63;2.22;;;;;;;3.87;100.00;102535.09;6266759;28;20106;-73
2023/11/22 12:18:40;;;;;;;3.40;2.38;;;;;;;3.82;100.00;102535.09;6276003;28;20047;-73
2023/11/22 12:21:42;;;;;;;8.52;2.83;;;;;;;3.74;100.00;102524.66;6271056;28;20052;-73
2023/11/22 12:24:44;;;;;;;3.70;1.75;;;;;;;3.77;100.00;102524.66;6269175;28;20092;-69
2023/11/22 12:27:46;;;;;;;9.05;2.35;;;;;;;3.83;100.00;102516.00;6273629;28;20045;-68
2023/11/22 12:30:47;;;;;;;6.30;2.00;;;;;;;3.89;100.00;102515.16;6272354;28;20132;-69
2023/11/22 12:33:50;;;;;;;5.28;2.60;;;;;;;3.85;100.00;102496.06;6276700;28;20045;-71
2023/11/22 12:36:52;;;;;;;6.20;3.08;;;;;;;3.86;100.00;102507.34;6269112;28;20037;-69
2023/11/22 12:39:53;;;;;;;6.03;2.38;;;;;;;3.88;100.00;102516.91;6265782;28;20075;-70
2023/11/22 12:42:55;;;;;;;6.63;2.33;;;;;;;3.85;100.00;102532.47;6267734;28;20041;-71
2023/11/22 12:46:00;;;;;;;5.88;2.58;;;;;;;3.99;100.00;102545.53;6270151;28;20451;-70
2023/11/22 12:49:07;;;;;;;4.15;2.50;;;;;;;3.88;100.00;102545.50;6267692;28;20049;-70
2023/11/22 12:52:09;;;;;;;5.90;2.25;;;;;;;3.91;100.00;102545.53;6266948;28;20049;-70
2023/11/22 12:55:10;;;;;;;4.80;2.65;;;;;;;3.78;100.00;102542.00;6265448;28;20052;-72
2023/11/22 12:58:12;;;;;;;5.78;2.65;;;;;;;3.85;100.00;102537.69;6267864;28;20191;-70
2023/11/22 13:01:14;;;;;;;4.53;2.33;;;;;;;3.92;100.00;102542.06;6267781;28;20056;-70
2023/11/22 13:04:17;;;;;;;4.20;2.42;;;;;;;4.02;100.00;102540.34;6265180;28;20049;-70
2023/11/22 13:07:19;;;;;;;5.28;2.72;;;;;;;3.88;100.00;102523.81;6266969;28;20098;-69
2023/11/22 13:10:25;;;;;;;7.13;2.30;;;;;;;3.93;100.00;102528.16;6267789;28;20041;-70
2023/11/22 13:13:27;;;;;;;4.95;2.83;;;;;;;3.88;100.00;102521.22;6267616;28;20041;-70
2023/11/22 13:16:29;;;;;;;4.07;2.10;;;;;;;3.78;100.00;102522.94;6272225;28;20463;-69
2023/11/22 13:19:31;;;;;;;6.32;2.47;;;;;;;3.67;100.00;102529.81;6279080;28;20048;-69
2023/11/22 13:22:33;;;;;;;4.63;2.35;;;;;;;3.65;100.00;102536.75;6278507;28;20049;-69
2023/11/22 13:25:34;;;;;;;6.32;2.60;;;;;;;3.63;100.00;102534.13;6278761;28;20060;-69
2023/11/22 13:28:36;;;;;;;8.05;2.60;;;;;;;3.72;100.00;102533.28;6277534;28;20060;-69
2023/11/22 13:31:37;;;;;;;3.50;2.10;;;;;;;3.70;100.00;102548.91;6278336;28;20045;-69
2023/11/22 13:34:40;;;;;;;3.13;2.20;;;;;;;3.66;100.00;102561.88;6278273;28;20369;-69
2023/11/22 13:37:43;;;;;;;4.72;1.90;;;;;;;3.63;100.00;102556.66;6278488;28;20045;-71
2023/11/22 13:40:45;;;;;;;4.80;2.10;;;;;;;3.62;100.00;102566.19;6270512;28;20056;-70
2023/11/22 13:43:48;;;;;;;7.95;2.90;;;;;;;3.63;100.00;102559.25;6257617;28;20049;-69
2023/11/22 13:46:49;;;;;;;3.70;2.00;;;;;;;3.60;100.00;102562.72;6278199;28;20083;-69
2023/11/22 13:49:53;;;;;;;6.30;2.45;;;;;;;3.68;100.00;102566.22;6278054;28;20049;-69
2023/11/22 13:52:56;;;;;;;5.25;2.38;;;;;;;3.71;100.00;102580.97;6277843;28;20481;-69
2023/11/22 13:55:58;;;;;;;6.68;2.78;;;;;;;3.58;100.00;102579.16;6278104;28;20053;-70
2023/11/22 13:58:59;;;;;;;4.50;2.35;;;;;;;3.56;100.00;102563.56;6278278;28;20044;-72
2023/11/22 14:02:01;;;;;;;5.32;2.60;;;;;;;3.59;100.00;102562.69;6274664;28;20045;-69
2023/11/22 14:05:07;;;;;;;7.25;3.05;;;;;;;3.56;100.00;102563.56;6267529;28;20041;-69
2023/11/22 14:08:08;;;;;;;5.35;2.72;;;;;;;3.50;100.00;102559.22;6277055;28;20045;-70